sensor_id;sensor_type;location;lat;lon;timestamp;pressure;altitude;pressure_sealevel;temperature;humidity
24302;BME280;12421;49.732;20.078;2023-04-15T00:05:53;95549.52;;;8.55;68.75
24302;BME280;12421;49.732;20.078;2023-04-15T00:15:56;95547.20;;;8.63;68.59
24302;BME280;12421;49.732;20.078;2023-04-15T00:26:00;95553.21;;;8.68;68.79
24302;BME280;12421;49.732;20.078;2023-04-15T00:36:05;95545.40;;;8.65;68.35
24302;BME280;12421;49.732;20.078;2023-04-15T00:46:08;95543.02;;;8.63;68.93
24302;BME280;12421;49.732;20.078;2023-04-15T00:56:13;95548.41;;;8.64;68.88
24302;BME280;12421;49.732;20.078;2023-04-15T01:06:17;95549.33;;;8.56;68.90
24302;BME280;12421;49.732;20.078;2023-04-15T01:16:20;95566.02;;;8.39;69.00
24302;BME280;12421;49.732;20.078;2023-04-15T01:26:24;95569.95;;;8.27;69.61
24302;BME280;12421;49.732;20.078;2023-04-15T01:36:27;95575.70;;;8.20;69.65
24302;BME280;12421;49.732;20.078;2023-04-15T01:46:31;95584.31;;;8.03;70.07
24302;BME280;12421;49.732;20.078;2023-04-15T01:56:35;95593.11;;;7.60;70.60
24302;BME280;12421;49.732;20.078;2023-04-15T02:06:38;95601.48;;;7.44;71.29
24302;BME280;12421;49.732;20.078;2023-04-15T02:16:42;95602.41;;;7.14;71.57
24302;BME280;12421;49.732;20.078;2023-04-15T02:26:45;95614.27;;;6.87;72.39
24302;BME280;12421;49.732;20.078;2023-04-15T02:36:49;95621.56;;;6.79;72.62
24302;BME280;12421;49.732;20.078;2023-04-15T02:46:57;95628.41;;;6.65;72.89
24302;BME280;12421;49.732;20.078;2023-04-15T02:57:01;95634.55;;;6.42;73.31
24302;BME280;12421;49.732;20.078;2023-04-15T03:07:04;95631.58;;;6.31;73.78
24302;BME280;12421;49.732;20.078;2023-04-15T03:17:08;95646.92;;;5.95;74.27
24302;BME280;12421;49.732;20.078;2023-04-15T03:27:13;95645.38;;;5.78;75.20
24302;BME280;12421;49.732;20.078;2023-04-15T03:37:17;95657.55;;;5.64;75.34
24302;BME280;12421;49.732;20.078;2023-04-15T03:47:20;95669.39;;;5.65;75.71
24302;BME280;12421;49.732;20.078;2023-04-15T03:57:23;95691.80;;;5.54;75.15
24302;BME280;12421;49.732;20.078;2023-04-15T04:07:26;95705.27;;;5.15;75.55
24302;BME280;12421;49.732;20.078;2023-04-15T04:17:29;95718.98;;;4.98;76.03
24302;BME280;12421;49.732;20.078;2023-04-15T04:27:33;95727.77;;;4.88;76.35
24302;BME280;12421;49.732;20.078;2023-04-15T04:37:36;95741.30;;;4.93;76.77
24302;BME280;12421;49.732;20.078;2023-04-15T04:47:40;95735.79;;;5.07;76.88
24302;BME280;12421;49.732;20.078;2023-04-15T04:57:43;95734.52;;;5.31;77.16
24302;BME280;12421;49.732;20.078;2023-04-15T05:07:46;95739.48;;;5.55;77.21
24302;BME280;12421;49.732;20.078;2023-04-15T05:17:51;95744.44;;;5.82;77.60
24302;BME280;12421;49.732;20.078;2023-04-15T05:27:54;95747.11;;;6.05;77.29
24302;BME280;12421;49.732;20.078;2023-04-15T05:37:57;95752.68;;;6.33;77.15
24302;BME280;12421;49.732;20.078;2023-04-15T05:48:00;95753.71;;;6.71;77.11
24302;BME280;12421;49.732;20.078;2023-04-15T05:58:03;95755.08;;;7.16;76.82
24302;BME280;12421;49.732;20.078;2023-04-15T06:08:06;95757.02;;;7.74;76.26
24302;BME280;12421;49.732;20.078;2023-04-15T06:18:10;95762.94;;;8.37;74.09
24302;BME280;12421;49.732;20.078;2023-04-15T06:28:13;95765.68;;;9.09;71.59
24302;BME280;12421;49.732;20.078;2023-04-15T06:38:36;95770.80;;;9.77;69.54
24302;BME280;12421;49.732;20.078;2023-04-15T06:48:42;95778.61;;;10.96;67.90
24302;BME280;12421;49.732;20.078;2023-04-15T06:58:53;95787.42;;;11.56;65.74
24302;BME280;12421;49.732;20.078;2023-04-15T07:08:57;95783.20;;;12.55;63.17
24302;BME280;12421;49.732;20.078;2023-04-15T07:19:00;95778.32;;;14.58;61.36
24302;BME280;12421;49.732;20.078;2023-04-15T07:29:07;95779.32;;;16.63;51.24
24302;BME280;12421;49.732;20.078;2023-04-15T07:50:23;95779.95;;;18.48;45.09
24302;BME280;12421;49.732;20.078;2023-04-15T08:00:27;95789.98;;;17.46;44.19
24302;BME280;12421;49.732;20.078;2023-04-15T08:10:49;95796.42;;;16.51;44.04
24302;BME280;12421;49.732;20.078;2023-04-15T08:21:17;95808.66;;;15.91;44.82
24302;BME280;12421;49.732;20.078;2023-04-15T08:31:41;95813.55;;;15.82;45.07
24302;BME280;12421;49.732;20.078;2023-04-15T08:41:46;95804.80;;;16.15;43.87
24302;BME280;12421;49.732;20.078;2023-04-15T08:51:50;95803.51;;;16.06;43.91
24302;BME280;12421;49.732;20.078;2023-04-15T09:01:54;95808.73;;;15.97;44.45
24302;BME280;12421;49.732;20.078;2023-04-15T09:12:00;95813.00;;;15.72;44.35
24302;BME280;12421;49.732;20.078;2023-04-15T09:22:03;95813.85;;;15.55;44.45
24302;BME280;12421;49.732;20.078;2023-04-15T09:32:24;95815.48;;;15.12;44.35
24302;BME280;12421;49.732;20.078;2023-04-15T09:42:29;95817.90;;;14.80;45.21
24302;BME280;12421;49.732;20.078;2023-04-15T09:52:40;95818.03;;;14.77;44.70
24302;BME280;12421;49.732;20.078;2023-04-15T10:02:50;95818.30;;;14.86;44.47
24302;BME280;12421;49.732;20.078;2023-04-15T10:12:54;95825.19;;;15.09;44.78
24302;BME280;12421;49.732;20.078;2023-04-15T10:22:58;95824.70;;;15.39;44.43
24302;BME280;12421;49.732;20.078;2023-04-15T10:33:02;95820.17;;;15.67;43.66
24302;BME280;12421;49.732;20.078;2023-04-15T10:43:06;95814.91;;;15.62;43.60
24302;BME280;12421;49.732;20.078;2023-04-15T10:53:09;95823.30;;;15.46;43.86
24302;BME280;12421;49.732;20.078;2023-04-15T11:03:13;95833.06;;;15.42;44.65
24302;BME280;12421;49.732;20.078;2023-04-15T11:13:19;95841.02;;;15.07;45.23
24302;BME280;12421;49.732;20.078;2023-04-15T11:23:37;95852.44;;;14.97;47.09
24302;BME280;12421;49.732;20.078;2023-04-15T11:33:58;95853.34;;;15.16;47.21
24302;BME280;12421;49.732;20.078;2023-04-15T11:44:01;95855.98;;;15.31;47.31
24302;BME280;12421;49.732;20.078;2023-04-15T11:54:05;95860.37;;;14.90;51.10
24302;BME280;12421;49.732;20.078;2023-04-15T12:04:13;95857.65;;;14.27;53.33
24302;BME280;12421;49.732;20.078;2023-04-15T12:14:26;95856.86;;;14.29;53.66
24302;BME280;12421;49.732;20.078;2023-04-15T12:24:33;95849.27;;;14.66;52.18
24302;BME280;12421;49.732;20.078;2023-04-15T12:34:40;95846.77;;;14.74;50.53
24302;BME280;12421;49.732;20.078;2023-04-15T12:44:43;95843.75;;;14.31;50.77
24302;BME280;12421;49.732;20.078;2023-04-15T12:54:47;95844.47;;;14.30;50.67
24302;BME280;12421;49.732;20.078;2023-04-15T13:04:50;95846.92;;;14.47;48.99
24302;BME280;12421;49.732;20.078;2023-04-15T13:14:53;95848.25;;;14.45;48.71
24302;BME280;12421;49.732;20.078;2023-04-15T13:24:56;95845.32;;;14.43;48.52
24302;BME280;12421;49.732;20.078;2023-04-15T13:34:59;95846.50;;;14.44;48.82
24302;BME280;12421;49.732;20.078;2023-04-15T13:45:03;95838.31;;;14.74;48.62
24302;BME280;12421;49.732;20.078;2023-04-15T13:55:07;95834.75;;;15.01;47.99
24302;BME280;12421;49.732;20.078;2023-04-15T14:05:23;95848.35;;;14.86;47.31
24302;BME280;12421;49.732;20.078;2023-04-15T14:15:26;95854.97;;;14.37;49.88
24302;BME280;12421;49.732;20.078;2023-04-15T14:25:29;95871.60;;;14.14;51.49
24302;BME280;12421;49.732;20.078;2023-04-15T14:35:36;95881.45;;;13.94;53.38
24302;BME280;12421;49.732;20.078;2023-04-15T14:45:39;95884.88;;;13.91;54.78
24302;BME280;12421;49.732;20.078;2023-04-15T14:55:47;95897.02;;;14.02;52.60
24302;BME280;12421;49.732;20.078;2023-04-15T15:05:50;95916.72;;;14.16;49.50
24302;BME280;12421;49.732;20.078;2023-04-15T15:15:54;95942.88;;;14.33;50.67
24302;BME280;12421;49.732;20.078;2023-04-15T15:25:57;95950.11;;;14.06;53.93
24302;BME280;12421;49.732;20.078;2023-04-15T15:36:02;95952.76;;;13.80;54.67
24302;BME280;12421;49.732;20.078;2023-04-15T15:46:05;95953.39;;;13.58;55.12
24302;BME280;12421;49.732;20.078;2023-04-15T15:56:09;95961.70;;;13.16;55.61
24302;BME280;12421;49.732;20.078;2023-04-15T16:06:12;95959.98;;;12.55;56.23
24302;BME280;12421;49.732;20.078;2023-04-15T16:16:15;95966.15;;;12.02;57.49
24302;BME280;12421;49.732;20.078;2023-04-15T16:26:18;95970.48;;;11.53;58.26
24302;BME280;12421;49.732;20.078;2023-04-15T16:36:33;95978.64;;;11.20;59.95
24302;BME280;12421;49.732;20.078;2023-04-15T16:46:49;95980.88;;;10.90;61.41
24302;BME280;12421;49.732;20.078;2023-04-15T16:56:57;95991.89;;;10.60;62.69
24302;BME280;12421;49.732;20.078;2023-04-15T17:07:00;96017.31;;;10.27;63.45
24302;BME280;12421;49.732;20.078;2023-04-15T17:17:31;96042.53;;;9.96;64.71
24302;BME280;12421;49.732;20.078;2023-04-15T17:27:35;96059.98;;;9.61;65.74
24302;BME280;12421;49.732;20.078;2023-04-15T17:37:40;96071.27;;;9.31;66.68
24302;BME280;12421;49.732;20.078;2023-04-15T17:47:44;96088.91;;;8.97;67.31
24302;BME280;12421;49.732;20.078;2023-04-15T17:57:48;96103.70;;;8.52;68.24
24302;BME280;12421;49.732;20.078;2023-04-15T18:07:53;96127.02;;;7.98;69.38
24302;BME280;12421;49.732;20.078;2023-04-15T18:17:59;96143.46;;;7.41;70.54
24302;BME280;12421;49.732;20.078;2023-04-15T18:28:03;96147.77;;;6.97;71.13
24302;BME280;12421;49.732;20.078;2023-04-15T18:38:26;96151.30;;;6.74;71.93
24302;BME280;12421;49.732;20.078;2023-04-15T18:49:02;96164.00;;;6.32;72.37
24302;BME280;12421;49.732;20.078;2023-04-15T18:59:10;96178.00;;;5.92;72.92
24302;BME280;12421;49.732;20.078;2023-04-15T19:09:32;96192.88;;;5.71;73.85
24302;BME280;12421;49.732;20.078;2023-04-15T19:19:36;96192.55;;;5.67;74.15
24302;BME280;12421;49.732;20.078;2023-04-15T19:29:41;96206.39;;;5.43;74.17
24302;BME280;12421;49.732;20.078;2023-04-15T19:39:54;96225.75;;;5.18;74.71
24302;BME280;12421;49.732;20.078;2023-04-15T19:50:52;96239.51;;;4.81;76.02
24302;BME280;12421;49.732;20.078;2023-04-15T20:00:57;96249.41;;;4.75;76.62
24302;BME280;12421;49.732;20.078;2023-04-15T20:11:01;96259.51;;;4.71;76.72
24302;BME280;12421;49.732;20.078;2023-04-15T20:21:15;96269.92;;;4.81;77.06
24302;BME280;12421;49.732;20.078;2023-04-15T20:31:39;96282.29;;;4.89;76.99
24302;BME280;12421;49.732;20.078;2023-04-15T20:41:46;96292.91;;;5.10;76.87
24302;BME280;12421;49.732;20.078;2023-04-15T20:51:52;96303.67;;;5.32;76.95
24302;BME280;12421;49.732;20.078;2023-04-15T21:02:05;96311.35;;;5.16;76.17
24302;BME280;12421;49.732;20.078;2023-04-15T21:12:09;96322.64;;;4.83;76.62
24302;BME280;12421;49.732;20.078;2023-04-15T21:22:12;96334.63;;;4.84;76.60
24302;BME280;12421;49.732;20.078;2023-04-15T21:32:16;96338.60;;;4.68;76.42
24302;BME280;12421;49.732;20.078;2023-04-15T21:42:19;96349.12;;;4.42;76.27
24302;BME280;12421;49.732;20.078;2023-04-15T21:52:22;96359.13;;;4.23;76.55
24302;BME280;12421;49.732;20.078;2023-04-15T22:02:26;96381.03;;;3.95;76.44
24302;BME280;12421;49.732;20.078;2023-04-15T22:12:29;96389.98;;;3.80;76.89
24302;BME280;12421;49.732;20.078;2023-04-15T22:22:33;96395.29;;;3.70;76.46
24302;BME280;12421;49.732;20.078;2023-04-15T22:32:46;96411.95;;;3.48;76.81
24302;BME280;12421;49.732;20.078;2023-04-15T22:42:49;96420.38;;;3.59;76.85
24302;BME280;12421;49.732;20.078;2023-04-15T22:52:52;96432.08;;;3.46;76.69
24302;BME280;12421;49.732;20.078;2023-04-15T23:02:55;96436.89;;;3.24;77.01
24302;BME280;12421;49.732;20.078;2023-04-15T23:12:59;96447.97;;;2.88;76.88
24302;BME280;12421;49.732;20.078;2023-04-15T23:23:02;96453.58;;;2.77;77.39
24302;BME280;12421;49.732;20.078;2023-04-15T23:33:05;96461.07;;;2.80;77.41
24302;BME280;12421;49.732;20.078;2023-04-15T23:43:08;96462.85;;;2.69;76.95
24302;BME280;12421;49.732;20.078;2023-04-15T23:53:11;96474.86;;;2.33;76.97
